Time;durP1;ratioP1;P1;durP2;ratioP2;P2;SDS_P1;SDS_P2;PMS_P1;PMS_P2;Temp;Humidity;BMP_temperature;BMP_pressure;BME280_temperature;BME280_humidity;BME280_pressure;Samples;Min_cycle;Max_cycle;Signal;HPM_P1;HPM_P2
2023/02/02 00:00:10;;;;;;;1.67;1.02;;;;;;;;;;5012531;28;20187;-43
2023/02/02 00:02:36;;;;;;;1.23;0.75;;;;;;;;;;5008533;28;20192;-43
2023/02/02 00:05:02;;;;;;;1.63;0.90;;;;;;;;;;5010913;28;20177;-43
2023/02/02 00:07:28;;;;;;;1.50;0.95;;;;;;;;;;5006515;28;20209;-43
2023/02/02 00:09:54;;;;;;;2.00;0.85;;;;;;;;;;5010903;28;20212;-43
2023/02/02 00:12:19;;;;;;;1.05;0.80;;;;;;;;;;5013931;28;20176;-43
2023/02/02 00:14:45;;;;;;;1.27;0.82;;;;;;;;;;5010999;28;20235;-43
2023/02/02 00:17:11;;;;;;;1.23;0.80;;;;;;;;;;5013159;28;20189;-43
2023/02/02 00:19:37;;;;;;;1.40;0.80;;;;;;;;;;5012765;28;20192;-43
2023/02/02 00:22:03;;;;;;;1.40;0.77;;;;;;;;;;5018099;28;20184;-43
2023/02/02 00:24:29;;;;;;;0.95;0.77;;;;;;;;;;5015837;28;20185;-43
2023/02/02 00:26:56;;;;;;;1.30;0.47;;;;;;;;;;5013830;28;20196;-44
2023/02/02 00:29:23;;;;;;;0.90;0.80;;;;;;;;;;5016699;28;20188;-43
2023/02/02 00:31:50;;;;;;;1.88;0.57;;;;;;;;;;5017138;28;20527;-44
2023/02/02 00:34:16;;;;;;;1.38;0.70;;;;;;;;;;5017077;28;20323;-43
2023/02/02 00:36:42;;;;;;;1.42;0.70;;;;;;;;;;5015914;28;20192;-43
2023/02/02 00:39:09;;;;;;;1.48;0.73;;;;;;;;;;5017273;28;20236;-43
2023/02/02 00:41:35;;;;;;;0.50;0.50;;;;;;;;;;5014792;28;20259;-43
2023/02/02 00:46:46;;;;;;;1.42;0.57;;;;;;;;;;5009716;28;20239;-43
2023/02/02 00:49:12;;;;;;;2.25;0.77;;;;;;;;;;5014983;28;20208;-43
2023/02/02 00:51:38;;;;;;;0.80;0.60;;;;;;;;;;5013019;28;20207;-43
2023/02/02 00:54:04;;;;;;;0.93;0.52;;;;;;;;;;5015663;28;20288;-44
2023/02/02 00:56:30;;;;;;;0.77;0.68;;;;;;;;;;5015324;28;20216;-44
2023/02/02 00:58:56;;;;;;;1.38;0.75;;;;;;;;;;5014417;28;20622;-43
2023/02/02 01:01:22;;;;;;;0.95;0.65;;;;;;;;;;5016068;28;20292;-44
2023/02/02 01:03:49;;;;;;;1.17;0.68;;;;;;;;;;5012918;28;20183;-43
2023/02/02 01:06:15;;;;;;;0.65;0.57;;;;;;;;;;5013768;28;20180;-44
2023/02/02 01:08:41;;;;;;;0.93;0.52;;;;;;;;;;5011864;28;20223;-43
2023/02/02 01:11:07;;;;;;;0.70;0.60;;;;;;;;;;5015935;28;20767;-44
2023/02/02 01:13:33;;;;;;;1.88;0.82;;;;;;;;;;5006603;28;20180;-43
2023/02/02 01:16:00;;;;;;;1.08;0.55;;;;;;;;;;5014171;28;20196;-43
2023/02/02 01:18:26;;;;;;;0.70;0.57;;;;;;;;;;5012438;28;20846;-43
2023/02/02 01:20:59;;;;;;;1.00;0.88;;;;;;;;;;5010523;28;20196;-43
2023/02/02 01:23:25;;;;;;;1.33;0.70;;;;;;;;;;5011997;28;20279;-43
2023/02/02 01:25:55;;;;;;;0.70;0.65;;;;;;;;;;5007098;28;20272;-43
2023/02/02 01:28:21;;;;;;;0.65;0.60;;;;;;;;;;5013620;28;20497;-44
2023/02/02 01:30:47;;;;;;;1.08;0.70;;;;;;;;;;5009784;28;20192;-43
2023/02/02 01:33:13;;;;;;;0.57;0.57;;;;;;;;;;5006330;28;20188;-44
2023/02/02 01:35:44;;;;;;;1.40;0.80;;;;;;;;;;5010337;28;20310;-43
2023/02/02 01:38:10;;;;;;;0.43;0.40;;;;;;;;;;5011178;28;20615;-43
2023/02/02 01:40:36;;;;;;;1.08;0.60;;;;;;;;;;5015242;28;20275;-44
2023/02/02 01:43:02;;;;;;;0.68;0.65;;;;;;;;;;5009841;28;20180;-43
2023/02/02 01:45:28;;;;;;;1.20;0.70;;;;;;;;;;5009980;28;20189;-44
2023/02/02 01:47:57;;;;;;;1.85;0.85;;;;;;;;;;5006786;28;20556;-44
2023/02/02 01:50:24;;;;;;;1.23;0.60;;;;;;;;;;5015952;28;20192;-44
2023/02/02 01:52:52;;;;;;;0.60;0.50;;;;;;;;;;5008872;28;20208;-43
2023/02/02 01:55:21;;;;;;;0.82;0.50;;;;;;;;;;5009403;28;20188;-44
2023/02/02 01:57:58;;;;;;;0.70;0.50;;;;;;;;;;5008759;28;20208;-43
2023/02/02 02:00:26;;;;;;;0.50;0.50;;;;;;;;;;5015054;28;20193;-43
2023/02/02 02:02:54;;;;;;;0.93;0.60;;;;;;;;;;5011934;28;20240;-44
2023/02/02 02:05:24;;;;;;;1.27;0.75;;;;;;;;;;5011635;28;20189;-43
2023/02/02 02:07:51;;;;;;;1.02;0.50;;;;;;;;;;5014731;28;20291;-43
2023/02/02 02:10:18;;;;;;;1.48;0.70;;;;;;;;;;5030429;28;20203;-44
2023/02/02 02:12:44;;;;;;;1.67;0.80;;;;;;;;;;5012674;28;20259;-43
2023/02/02 02:18:05;;;;;;;0.50;0.50;;;;;;;;;;5015819;28;20215;-43
2023/02/02 02:26:55;;;;;;;0.50;0.50;;;;;;;;;;5008605;28;20203;-44
2023/02/02 02:29:44;;;;;;;1.23;0.80;;;;;;;;;;5008201;28;20185;-44
2023/02/02 02:32:09;;;;;;;0.50;0.50;;;;;;;;;;5015902;28;20184;-44
2023/02/02 02:34:50;;;;;;;0.80;0.55;;;;;;;;;;5008813;28;20578;-44
2023/02/02 02:37:22;;;;;;;0.70;0.50;;;;;;;;;;5010249;28;20813;-44
2023/02/02 02:39:51;;;;;;;0.77;0.60;;;;;;;;;;5011532;28;20196;-45
2023/02/02 02:42:19;;;;;;;1.02;0.50;;;;;;;;;;5007269;28;20243;-45
2023/02/02 02:44:47;;;;;;;0.73;0.57;;;;;;;;;;5004038;28;20224;-45
2023/02/02 02:47:13;;;;;;;1.00;0.50;;;;;;;;;;5006345;28;20189;-45
2023/02/02 02:49:42;;;;;;;0.47;0.47;;;;;;;;;;5012208;28;20560;-44
2023/02/02 02:52:08;;;;;;;1.40;0.77;;;;;;;;;;5005699;28;20188;-45
2023/02/02 02:54:36;;;;;;;1.10;0.70;;;;;;;;;;5014906;28;20185;-45
2023/02/02 02:57:15;;;;;;;1.13;0.60;;;;;;;;;;5003954;28;20193;-45
2023/02/02 02:59:56;;;;;;;1.15;0.60;;;;;;;;;;5011303;28;20223;-45
2023/02/02 03:02:36;;;;;;;0.77;0.50;;;;;;;;;;5009041;28;20200;-45
2023/02/02 03:05:18;;;;;;;1.27;0.70;;;;;;;;;;5012400;28;20176;-45
2023/02/02 03:07:44;;;;;;;1.08;0.55;;;;;;;;;;5005354;28;20659;-43
2023/02/02 03:10:13;;;;;;;0.90;0.55;;;;;;;;;;5015260;28;20184;-44
2023/02/02 03:12:46;;;;;;;0.82;0.50;;;;;;;;;;5010548;28;20275;-45
2023/02/02 03:15:13;;;;;;;0.55;0.55;;;;;;;;;;5005116;28;20188;-45
2023/02/02 03:17:39;;;;;;;0.57;0.47;;;;;;;;;;5004899;28;20212;-45
2023/02/02 03:20:05;;;;;;;0.52;0.50;;;;;;;;;;5009587;28;20513;-45
2023/02/02 03:22:31;;;;;;;1.33;0.70;;;;;;;;;;5013323;28;20219;-45
2023/02/02 03:24:58;;;;;;;0.73;0.45;;;;;;;;;;5014892;28;20185;-45
2023/02/02 03:27:24;;;;;;;0.70;0.60;;;;;;;;;;5004199;28;20235;-45
2023/02/02 03:29:50;;;;;;;1.73;0.70;;;;;;;;;;5012815;28;20188;-45
2023/02/02 03:32:16;;;;;;;0.75;0.57;;;;;;;;;;5009370;28;20544;-45
2023/02/02 03:34:42;;;;;;;0.93;0.80;;;;;;;;;;5010231;28;20602;-45
2023/02/02 03:37:08;;;;;;;1.00;0.70;;;;;;;;;;5008201;28;20263;-45
2023/02/02 03:39:34;;;;;;;0.98;0.75;;;;;;;;;;5012826;28;20218;-45
2023/02/02 03:41:59;;;;;;;0.82;0.50;;;;;;;;;;5011672;28;20192;-45
2023/02/02 03:44:25;;;;;;;0.73;0.60;;;;;;;;;;5013070;28;20203;-45
2023/02/02 03:46:54;;;;;;;0.88;0.50;;;;;;;;;;5010255;28;20188;-45
2023/02/02 03:49:20;;;;;;;2.13;0.40;;;;;;;;;;5016699;28;20184;-45
2023/02/02 03:51:46;;;;;;;0.90;0.63;;;;;;;;;;5018254;28;20184;-45
2023/02/02 03:54:12;;;;;;;1.33;0.70;;;;;;;;;;5015279;28;20207;-45
2023/02/02 03:56:38;;;;;;;1.45;0.63;;;;;;;;;;5016236;28;20338;-45
2023/02/02 03:59:04;;;;;;;1.55;0.57;;;;;;;;;;5015131;28;20789;-45
2023/02/02 04:01:30;;;;;;;1.00;0.60;;;;;;;;;;5017073;28;20188;-43
2023/02/02 04:03:57;;;;;;;0.63;0.57;;;;;;;;;;5014959;28;20192;-43
2023/02/02 04:06:24;;;;;;;0.75;0.65;;;;;;;;;;5011437;28;20184;-43
2023/02/02 04:08:50;;;;;;;0.50;0.45;;;;;;;;;;5015076;28;20203;-43
2023/02/02 04:11:16;;;;;;;1.55;0.65;;;;;;;;;;5017754;28;20188;-43
2023/02/02 04:13:42;;;;;;;0.93;0.45;;;;;;;;;;5018867;28;20208;-43
2023/02/02 04:16:09;;;;;;;0.90;0.60;;;;;;;;;;5015270;28;20563;-44
2023/02/02 04:18:36;;;;;;;1.77;0.50;;;;;;;;;;5017778;28;20214;-44
2023/02/02 04:21:03;;;;;;;0.80;0.47;;;;;;;;;;5010240;28;20177;-44
2023/02/02 04:23:29;;;;;;;0.68;0.60;;;;;;;;;;5012236;28;20184;-44
2023/02/02 04:25:55;;;;;;;0.93;0.65;;;;;;;;;;5016307;28;20689;-44
2023/02/02 04:28:22;;;;;;;0.43;0.43;;;;;;;;;;5017601;28;20207;-44
2023/02/02 04:30:48;;;;;;;1.50;0.60;;;;;;;;;;5017146;28;20192;-44
2023/02/02 04:33:14;;;;;;;2.58;0.65;;;;;;;;;;5011108;28;20185;-44
2023/02/02 04:35:41;;;;;;;1.00;0.65;;;;;;;;;;5003915;28;20194;-44
2023/02/02 04:38:07;;;;;;;1.50;0.52;;;;;;;;;;5012931;28;20212;-45
2023/02/02 04:40:33;;;;;;;0.63;0.60;;;;;;;;;;5011189;28;20180;-44
2023/02/02 04:42:59;;;;;;;1.92;0.60;;;;;;;;;;5009300;28;20590;-44
2023/02/02 04:45:25;;;;;;;0.57;0.50;;;;;;;;;;5009743;28;20196;-44
2023/02/02 04:47:51;;;;;;;1.00;0.57;;;;;;;;;;5010333;28;20264;-44
2023/02/02 04:50:17;;;;;;;0.95;0.60;;;;;;;;;;5011655;28;20586;-44
2023/02/02 04:52:43;;;;;;;1.40;0.60;;;;;;;;;;5007036;28;20192;-44
2023/02/02 04:55:09;;;;;;;1.00;0.50;;;;;;;;;;5009014;28;20244;-44
2023/02/02 04:57:35;;;;;;;0.60;0.47;;;;;;;;;;5016376;28;20270;-44
2023/02/02 05:00:00;;;;;;;1.08;0.50;;;;;;;;;;5016147;28;20556;-44
2023/02/02 05:02:26;;;;;;;1.65;0.90;;;;;;;;;;5015091;28;20177;-44
2023/02/02 05:04:52;;;;;;;0.63;0.50;;;;;;;;;;5012410;28;20552;-44
2023/02/02 05:07:18;;;;;;;1.13;0.70;;;;;;;;;;5005681;28;20338;-44
2023/02/02 05:09:44;;;;;;;0.77;0.30;;;;;;;;;;5005674;28;20180;-44
2023/02/02 05:12:10;;;;;;;0.50;0.40;;;;;;;;;;5016242;28;20267;-44
2023/02/02 05:14:36;;;;;;;1.20;0.70;;;;;;;;;;5009905;28;20188;-44
2023/02/02 05:17:02;;;;;;;1.48;0.52;;;;;;;;;;5016524;28;20200;-44
2023/02/02 05:19:28;;;;;;;0.63;0.60;;;;;;;;;;5010934;28;20208;-44
2023/02/02 05:21:54;;;;;;;1.60;0.50;;;;;;;;;;5015601;28;20215;-44
2023/02/02 05:24:20;;;;;;;1.05;0.60;;;;;;;;;;5011203;28;20184;-44
2023/02/02 05:26:46;;;;;;;1.00;0.57;;;;;;;;;;5017024;28;20203;-44
2023/02/02 05:29:12;;;;;;;0.40;0.40;;;;;;;;;;5008834;28;20552;-44
2023/02/02 05:31:38;;;;;;;1.33;0.60;;;;;;;;;;5010143;28;20239;-44
2023/02/02 05:34:05;;;;;;;1.00;0.80;;;;;;;;;;5009837;28;20230;-44
2023/02/02 05:36:31;;;;;;;0.57;0.43;;;;;;;;;;5012038;28;20236;-45
2023/02/02 05:38:57;;;;;;;1.02;0.57;;;;;;;;;;5015484;28;20208;-44
2023/02/02 05:41:23;;;;;;;0.82;0.50;;;;;;;;;;5016702;28;20180;-43
2023/02/02 05:43:49;;;;;;;1.38;0.52;;;;;;;;;;5008033;28;20177;-44
2023/02/02 05:46:15;;;;;;;1.50;0.70;;;;;;;;;;5012914;28;20180;-43
2023/02/02 05:48:41;;;;;;;0.63;0.30;;;;;;;;;;5009201;28;20196;-44
2023/02/02 05:51:15;;;;;;;0.70;0.52;;;;;;;;;;5014256;28;20189;-44
2023/02/02 05:53:43;;;;;;;0.60;0.60;;;;;;;;;;5010992;28;20180;-43
2023/02/02 05:56:10;;;;;;;0.68;0.60;;;;;;;;;;5015131;28;20176;-44
2023/02/02 05:58:35;;;;;;;0.75;0.57;;;;;;;;;;5012802;28;20250;-44
2023/02/02 06:01:01;;;;;;;0.65;0.50;;;;;;;;;;5015256;28;20564;-44
2023/02/02 06:03:27;;;;;;;0.73;0.43;;;;;;;;;;5013237;28;20216;-43
2023/02/02 06:05:53;;;;;;;1.85;0.70;;;;;;;;;;5013382;28;20191;-43
2023/02/02 06:08:19;;;;;;;1.88;0.40;;;;;;;;;;5011143;28;20212;-43
2023/02/02 06:10:45;;;;;;;0.63;0.40;;;;;;;;;;5014544;28;20177;-43
2023/02/02 06:13:11;;;;;;;1.60;0.70;;;;;;;;;;5015402;28;20197;-43
2023/02/02 06:15:38;;;;;;;1.38;0.90;;;;;;;;;;5013086;28;20456;-44
2023/02/02 06:18:05;;;;;;;1.38;0.60;;;;;;;;;;5015321;28;20210;-44
2023/02/02 06:20:31;;;;;;;2.35;0.70;;;;;;;;;;5008895;28;20456;-44
2023/02/02 06:22:57;;;;;;;1.00;0.60;;;;;;;;;;5008899;28;20188;-44
2023/02/02 06:25:23;;;;;;;0.55;0.55;;;;;;;;;;5010653;28;20187;-44
2023/02/02 06:27:49;;;;;;;0.90;0.60;;;;;;;;;;5014398;28;20204;-44
2023/02/02 06:30:16;;;;;;;1.73;0.52;;;;;;;;;;5015236;28;20216;-44
2023/02/02 06:32:41;;;;;;;1.00;0.50;;;;;;;;;;5014940;28;20184;-44
2023/02/02 06:35:08;;;;;;;0.68;0.45;;;;;;;;;;5014854;28;20586;-44
2023/02/02 06:37:34;;;;;;;0.60;0.55;;;;;;;;;;5014953;28;20545;-44
2023/02/02 06:40:00;;;;;;;1.30;0.70;;;;;;;;;;5015483;28;20215;-44
2023/02/02 06:42:26;;;;;;;1.85;0.60;;;;;;;;;;5005170;28;20213;-44
2023/02/02 06:44:51;;;;;;;1.30;0.55;;;;;;;;;;5008446;28;20212;-44
2023/02/02 06:47:17;;;;;;;1.02;0.50;;;;;;;;;;5004417;28;20516;-44
2023/02/02 06:49:43;;;;;;;1.40;0.77;;;;;;;;;;5010527;28;20192;-44
2023/02/02 06:52:09;;;;;;;1.52;0.73;;;;;;;;;;5011133;28;20263;-44
2023/02/02 06:54:35;;;;;;;1.08;0.38;;;;;;;;;;5009966;28;20271;-44
2023/02/02 06:57:01;;;;;;;0.85;0.50;;;;;;;;;;5007011;28;20184;-44
2023/02/02 06:59:27;;;;;;;1.20;0.65;;;;;;;;;;5012916;28;20254;-44
2023/02/02 07:01:53;;;;;;;1.00;0.60;;;;;;;;;;5008277;28;20187;-44
2023/02/02 07:04:19;;;;;;;0.80;0.50;;;;;;;;;;5005623;28;20188;-44
2023/02/02 07:06:45;;;;;;;1.50;0.77;;;;;;;;;;5013198;28;20211;-44
2023/02/02 07:09:11;;;;;;;0.80;0.50;;;;;;;;;;5007971;28;20196;-44
2023/02/02 07:11:37;;;;;;;0.90;0.52;;;;;;;;;;5010294;28;20381;-45
2023/02/02 07:14:03;;;;;;;1.10;0.70;;;;;;;;;;5011944;28;20193;-45
2023/02/02 07:16:29;;;;;;;0.77;0.63;;;;;;;;;;5009910;28;20235;-45
2023/02/02 07:18:56;;;;;;;0.47;0.45;;;;;;;;;;5010443;28;20232;-44
2023/02/02 07:21:23;;;;;;;0.93;0.70;;;;;;;;;;5009323;28;20579;-45
2023/02/02 07:23:49;;;;;;;1.08;0.60;;;;;;;;;;5002534;28;20205;-45
2023/02/02 07:26:15;;;;;;;3.20;0.80;;;;;;;;;;5011510;28;20450;-44
2023/02/02 07:28:42;;;;;;;1.23;0.50;;;;;;;;;;5009957;28;20214;-45
2023/02/02 07:31:16;;;;;;;1.92;0.90;;;;;;;;;;5010469;28;20180;-45
2023/02/02 07:33:43;;;;;;;1.40;0.77;;;;;;;;;;5010602;28;20184;-45
2023/02/02 07:36:10;;;;;;;0.50;0.50;;;;;;;;;;5008385;28;20183;-45
2023/02/02 07:38:36;;;;;;;0.88;0.50;;;;;;;;;;5011498;28;20211;-45
2023/02/02 07:41:02;;;;;;;1.05;0.55;;;;;;;;;;5013076;28;20177;-45
2023/02/02 07:43:27;;;;;;;1.08;0.55;;;;;;;;;;5009846;28;20922;-45
2023/02/02 07:45:54;;;;;;;1.10;0.65;;;;;;;;;;5006094;28;20734;-45
2023/02/02 07:48:20;;;;;;;0.60;0.40;;;;;;;;;;5006325;28;20215;-45
2023/02/02 07:50:46;;;;;;;1.67;0.60;;;;;;;;;;5011856;28;20615;-45
2023/02/02 07:53:12;;;;;;;1.75;0.70;;;;;;;;;;5002057;28;20306;-45
2023/02/02 07:55:37;;;;;;;1.33;0.47;;;;;;;;;;5013985;28;20196;-45
2023/02/02 07:58:03;;;;;;;1.30;0.70;;;;;;;;;;5002970;28;20209;-45
2023/02/02 08:00:29;;;;;;;0.90;0.60;;;;;;;;;;5008122;28;20169;-45
2023/02/02 08:02:55;;;;;;;3.33;0.60;;;;;;;;;;5011936;28;20203;-45
2023/02/02 08:05:21;;;;;;;0.35;0.30;;;;;;;;;;5004167;28;20188;-45
2023/02/02 08:07:47;;;;;;;2.10;0.47;;;;;;;;;;5004693;28;20205;-45
2023/02/02 08:10:13;;;;;;;3.85;0.60;;;;;;;;;;5009031;28;20327;-45
2023/02/02 08:12:39;;;;;;;2.05;0.68;;;;;;;;;;5014452;28;20602;-45
2023/02/02 08:15:06;;;;;;;1.95;0.95;;;;;;;;;;5011325;28;20266;-45
2023/02/02 08:17:32;;;;;;;0.90;0.50;;;;;;;;;;5014601;28;20267;-45
2023/02/02 08:19:58;;;;;;;1.02;0.70;;;;;;;;;;5014612;28;20564;-45
2023/02/02 08:22:24;;;;;;;1.00;0.45;;;;;;;;;;5014393;28;20268;-45
2023/02/02 08:24:50;;;;;;;0.63;0.57;;;;;;;;;;5014322;28;20272;-45
2023/02/02 08:27:16;;;;;;;0.85;0.70;;;;;;;;;;5014201;28;20271;-45
2023/02/02 08:29:42;;;;;;;1.58;0.77;;;;;;;;;;5013474;28;20278;-45
2023/02/02 08:32:08;;;;;;;3.65;0.70;;;;;;;;;;5014497;28;20510;-45
2023/02/02 08:34:35;;;;;;;0.93;0.68;;;;;;;;;;5016650;28;20271;-45
2023/02/02 08:37:01;;;;;;;0.95;0.60;;;;;;;;;;5018232;28;20177;-45
2023/02/02 08:39:27;;;;;;;0.60;0.40;;;;;;;;;;5017734;28;20216;-45
2023/02/02 08:41:56;;;;;;;3.22;0.85;;;;;;;;;;5006714;28;20196;-44
2023/02/02 08:44:23;;;;;;;1.13;0.45;;;;;;;;;;5009791;28;20212;-45
2023/02/02 08:46:49;;;;;;;2.00;0.60;;;;;;;;;;5017661;28;20172;-45
2023/02/02 08:49:15;;;;;;;1.48;0.73;;;;;;;;;;5017291;28;20188;-45
2023/02/02 08:51:41;;;;;;;2.38;0.60;;;;;;;;;;5014988;28;20212;-45
2023/02/02 08:54:07;;;;;;;2.13;0.63;;;;;;;;;;5012738;28;20195;-45
2023/02/02 08:56:33;;;;;;;2.28;0.77;;;;;;;;;;5016809;28;20256;-45
2023/02/02 08:59:01;;;;;;;0.70;0.65;;;;;;;;;;5014472;28;20257;-44
2023/02/02 09:01:28;;;;;;;1.65;0.68;;;;;;;;;;5016537;28;20181;-45
2023/02/02 09:04:01;;;;;;;1.05;0.60;;;;;;;;;;5013067;28;20601;-45
2023/02/02 09:06:30;;;;;;;2.53;0.60;;;;;;;;;;5011065;28;20176;-45
2023/02/02 09:08:56;;;;;;;1.40;0.80;;;;;;;;;;5006123;28;20189;-45
2023/02/02 09:11:22;;;;;;;1.00;0.90;;;;;;;;;;5014145;28;20184;-45
2023/02/02 09:13:48;;;;;;;3.13;0.90;;;;;;;;;;5011427;28;20225;-45
2023/02/02 09:16:15;;;;;;;1.80;0.88;;;;;;;;;;5016533;28;20275;-45
2023/02/02 09:18:42;;;;;;;2.15;0.90;;;;;;;;;;5012202;28;20205;-44
2023/02/02 09:21:09;;;;;;;1.27;0.70;;;;;;;;;;5016678;28;20287;-45
2023/02/02 09:23:36;;;;;;;2.20;0.80;;;;;;;;;;5013766;28;20180;-45
2023/02/02 09:26:11;;;;;;;1.90;0.82;;;;;;;;;;5010836;28;20603;-45
2023/02/02 09:28:38;;;;;;;2.33;1.00;;;;;;;;;;5007076;28;20184;-45
2023/02/02 09:31:04;;;;;;;0.88;0.70;;;;;;;;;;5007862;28;20226;-45
2023/02/02 09:33:30;;;;;;;3.50;0.95;;;;;;;;;;5011696;28;20263;-45
2023/02/02 09:35:56;;;;;;;1.80;1.25;;;;;;;;;;5016240;28;20508;-45
2023/02/02 09:38:22;;;;;;;1.85;1.08;;;;;;;;;;5015278;28;20221;-45
2023/02/02 09:40:48;;;;;;;10.63;1.00;;;;;;;;;;5010569;28;20181;-45
2023/02/02 09:43:26;;;;;;;2.92;1.05;;;;;;;;;;5012242;28;20192;-45
2023/02/02 09:46:07;;;;;;;3.10;1.10;;;;;;;;;;5008333;28;20185;-45
2023/02/02 09:48:42;;;;;;;2.72;1.20;;;;;;;;;;5009360;28;20193;-45
2023/02/02 09:51:20;;;;;;;4.38;1.20;;;;;;;;;;5013311;28;20188;-45
2023/02/02 09:53:58;;;;;;;4.22;1.10;;;;;;;;;;5009859;28;20223;-45
2023/02/02 09:56:26;;;;;;;3.90;1.20;;;;;;;;;;5014544;28;20438;-45
2023/02/02 09:58:57;;;;;;;5.90;1.25;;;;;;;;;;5012482;28;20322;-45
2023/02/02 10:01:36;;;;;;;4.50;1.33;;;;;;;;;;5006889;28;20459;-45
2023/02/02 10:04:09;;;;;;;3.45;1.23;;;;;;;;;;5009704;28;20583;-45
2023/02/02 10:06:46;;;;;;;2.95;1.20;;;;;;;;;;5015916;28;20219;-45
2023/02/02 10:09:29;;;;;;;2.65;1.08;;;;;;;;;;5005127;28;20192;-45
2023/02/02 10:12:13;;;;;;;5.72;1.10;;;;;;;;;;5015872;28;20185;-45
2023/02/02 10:14:47;;;;;;;6.70;1.00;;;;;;;;;;5013002;28;20479;-45
2023/02/02 10:17:31;;;;;;;2.58;0.93;;;;;;;;;;5007836;28;20212;-45
2023/02/02 10:20:00;;;;;;;2.17;0.90;;;;;;;;;;5011067;28;20231;-46
2023/02/02 10:22:28;;;;;;;3.38;1.00;;;;;;;;;;5015823;28;20185;-46
2023/02/02 10:24:57;;;;;;;3.50;1.13;;;;;;;;;;5006546;28;20188;-45
2023/02/02 10:27:30;;;;;;;2.55;0.80;;;;;;;;;;5015524;28;20477;-45
2023/02/02 10:30:00;;;;;;;2.20;0.93;;;;;;;;;;5015133;28;20188;-46
2023/02/02 10:32:29;;;;;;;2.78;1.10;;;;;;;;;;5015803;28;20180;-45
2023/02/02 10:34:55;;;;;;;1.65;0.80;;;;;;;;;;5014838;28;20203;-46
2023/02/02 10:37:33;;;;;;;1.48;0.82;;;;;;;;;;5015407;28;20185;-45
2023/02/02 10:40:16;;;;;;;0.90;0.77;;;;;;;;;;5015331;28;20235;-45
2023/02/02 10:45:48;;;;;;;2.33;1.00;;;;;;;;;;5013767;28;20602;-46
2023/02/02 10:48:19;;;;;;;2.15;0.88;;;;;;;;;;5007652;28;20196;-45
2023/02/02 10:50:48;;;;;;;2.97;0.82;;;;;;;;;;5012443;28;20596;-45
2023/02/02 10:53:14;;;;;;;4.75;1.00;;;;;;;;;;5019244;28;20189;-45
2023/02/02 10:55:44;;;;;;;2.72;0.93;;;;;;;;;;5014235;28;20196;-45
2023/02/02 10:58:13;;;;;;;1.08;0.75;;;;;;;;;;5013291;28;20215;-45
2023/02/02 11:00:45;;;;;;;1.52;0.80;;;;;;;;;;5013544;28;20645;-45
2023/02/02 11:03:12;;;;;;;2.47;1.02;;;;;;;;;;5009050;28;20438;-45
2023/02/02 11:08:32;;;;;;;2.13;0.70;;;;;;;;;;5000903;28;20194;-45
2023/02/02 11:10:59;;;;;;;3.00;1.00;;;;;;;;;;5009542;28;20192;-46
2023/02/02 11:13:33;;;;;;;3.42;0.82;;;;;;;;;;5015182;28;20180;-45
2023/02/02 11:16:14;;;;;;;2.95;0.75;;;;;;;;;;5007356;28;20196;-45
2023/02/02 11:18:40;;;;;;;2.13;0.80;;;;;;;;;;5011625;28;20280;-46
2023/02/02 11:21:29;;;;;;;2.60;0.80;;;;;;;;;;5010026;28;20246;-45
2023/02/02 11:24:03;;;;;;;2.38;0.90;;;;;;;;;;4999401;28;20560;-45
2023/02/02 11:26:41;;;;;;;1.02;0.68;;;;;;;;;;5012049;28;20200;-45
2023/02/02 11:29:13;;;;;;;3.10;0.95;;;;;;;;;;5012986;28;20192;-45
2023/02/02 11:31:39;;;;;;;2.65;0.85;;;;;;;;;;5014801;28;20267;-45
2023/02/02 11:34:25;;;;;;;1.45;0.93;;;;;;;;;;5007480;28;20327;-45
2023/02/02 11:36:57;;;;;;;3.20;1.10;;;;;;;;;;5012013;28;20184;-45
2023/02/02 11:39:23;;;;;;;1.67;0.90;;;;;;;;;;5008496;28;20563;-45
2023/02/02 11:41:49;;;;;;;2.58;0.88;;;;;;;;;;5006995;28;20276;-45
2023/02/02 11:44:24;;;;;;;3.15;0.70;;;;;;;;;;5011126;28;20823;-45
2023/02/02 11:46:50;;;;;;;2.38;0.73;;;;;;;;;;5012792;28;20210;-45
2023/02/02 11:49:18;;;;;;;1.48;0.80;;;;;;;;;;5014112;28;20226;-45
2023/02/02 11:51:55;;;;;;;2.15;0.98;;;;;;;;;;5008102;28;20192;-45
2023/02/02 11:54:27;;;;;;;2.80;0.90;;;;;;;;;;5003630;28;20187;-45
2023/02/02 11:56:54;;;;;;;1.45;1.00;;;;;;;;;;5013226;28;20196;-45
2023/02/02 11:59:31;;;;;;;5.18;1.02;;;;;;;;;;5006328;28;20227;-45
2023/02/02 12:02:12;;;;;;;1.98;0.95;;;;;;;;;;5013225;28;20180;-45
2023/02/02 12:04:39;;;;;;;5.05;1.17;;;;;;;;;;5009352;28;20327;-45
2023/02/02 12:07:18;;;;;;;4.47;1.10;;;;;;;;;;5013386;28;20185;-45
2023/02/02 12:09:44;;;;;;;8.40;1.30;;;;;;;;;;5014645;28;20195;-45
2023/02/02 12:12:29;;;;;;;2.92;1.00;;;;;;;;;;5018261;28;20180;-45
2023/02/02 12:15:01;;;;;;;4.28;1.10;;;;;;;;;;5014959;28;20226;-45
2023/02/02 12:17:37;;;;;;;3.72;1.23;;;;;;;;;;5012463;28;20173;-45
2023/02/02 12:20:22;;;;;;;5.55;1.50;;;;;;;;;;5017050;28;20211;-45
2023/02/02 12:22:54;;;;;;;6.22;1.40;;;;;;;;;;5017824;28;20509;-46
2023/02/02 12:25:38;;;;;;;3.97;1.38;;;;;;;;;;5010745;28;20255;-45
2023/02/02 12:28:29;;;;;;;5.00;1.58;;;;;;;;;;5016727;28;20455;-45
2023/02/02 12:31:01;;;;;;;4.35;1.60;;;;;;;;;;5013634;28;20181;-45
2023/02/02 12:33:54;;;;;;;3.30;1.42;;;;;;;;;;5017638;28;20457;-46
2023/02/02 12:36:28;;;;;;;6.43;1.40;;;;;;;;;;4992194;28;20621;-45
2023/02/02 12:39:17;;;;;;;5.25;1.50;;;;;;;;;;5015398;28;20208;-45
2023/02/02 12:42:05;;;;;;;4.43;1.50;;;;;;;;;;5006287;28;20260;-45
2023/02/02 12:44:35;;;;;;;5.90;1.25;;;;;;;;;;5007144;28;20270;-45
2023/02/02 12:47:06;;;;;;;6.20;2.33;;;;;;;;;;5008789;28;20580;-45
2023/02/02 12:49:40;;;;;;;3.75;1.67;;;;;;;;;;5011668;28;20470;-45
2023/02/02 12:52:14;;;;;;;5.13;1.55;;;;;;;;;;5013553;28;20180;-45
2023/02/02 12:54:55;;;;;;;4.55;1.65;;;;;;;;;;5005206;28;20607;-44
2023/02/02 12:57:36;;;;;;;5.97;1.65;;;;;;;;;;5013569;28;20448;-45
2023/02/02 13:00:05;;;;;;;4.68;1.52;;;;;;;;;;5008597;28;20239;-45
2023/02/02 13:02:38;;;;;;;8.15;1.83;;;;;;;;;;5007582;28;20182;-45
2023/02/02 13:05:04;;;;;;;3.53;1.23;;;;;;;;;;5005366;28;20332;-45
2023/02/02 13:07:30;;;;;;;6.90;1.77;;;;;;;;;;5012621;28;20600;-45
2023/02/02 13:10:08;;;;;;;9.32;1.60;;;;;;;;;;5005519;28;20189;-45
2023/02/02 13:12:39;;;;;;;6.47;1.50;;;;;;;;;;5002228;28;20478;-45
2023/02/02 13:15:11;;;;;;;5.85;1.92;;;;;;;;;;5012692;28;20193;-45
2023/02/02 13:17:42;;;;;;;8.00;1.60;;;;;;;;;;5011482;28;20189;-45
2023/02/02 13:20:17;;;;;;;7.78;1.60;;;;;;;;;;5009121;28;20247;-45
2023/02/02 13:22:45;;;;;;;4.65;1.20;;;;;;;;;;5010305;28;20589;-44
2023/02/02 13:25:20;;;;;;;4.05;1.38;;;;;;;;;;5007978;28;20181;-44
2023/02/02 13:27:48;;;;;;;4.00;1.42;;;;;;;;;;5012137;28;20202;-45
2023/02/02 13:30:25;;;;;;;5.75;1.60;;;;;;;;;;5002151;28;20172;-45
2023/02/02 13:32:52;;;;;;;8.98;2.00;;;;;;;;;;5014327;28;20189;-45
2023/02/02 13:35:20;;;;;;;5.32;1.35;;;;;;;;;;5007525;28;20259;-44
2023/02/02 13:37:58;;;;;;;4.78;1.30;;;;;;;;;;5008041;28;20204;-45
2023/02/02 13:40:34;;;;;;;5.18;1.25;;;;;;;;;;5014048;28;20184;-45
2023/02/02 13:43:09;;;;;;;10.45;1.60;;;;;;;;;;5002717;28;20180;-45
2023/02/02 13:45:35;;;;;;;1.83;1.10;;;;;;;;;;5007727;28;20360;-45
2023/02/02 13:48:21;;;;;;;2.45;1.10;;;;;;;;;;5008202;28;20264;-44
2023/02/02 13:51:10;;;;;;;4.55;1.40;;;;;;;;;;5012726;28;20204;-45
2023/02/02 13:53:46;;;;;;;3.58;1.33;;;;;;;;;;4997789;28;20192;-45
2023/02/02 13:56:30;;;;;;;4.55;1.38;;;;;;;;;;5013363;28;20184;-44
2023/02/02 13:59:08;;;;;;;1.73;0.90;;;;;;;;;;5006032;28;20260;-44
2023/02/02 14:01:34;;;;;;;3.30;1.27;;;;;;;;;;5009001;28;20191;-45
2023/02/02 14:04:00;;;;;;;2.97;1.45;;;;;;;;;;5010123;28;20186;-45
2023/02/02 14:06:27;;;;;;;2.17;1.00;;;;;;;;;;5011322;28;20185;-45
2023/02/02 14:08:53;;;;;;;1.40;0.95;;;;;;;;;;5007835;28;20185;-45
2023/02/02 14:11:24;;;;;;;2.70;1.30;;;;;;;;;;5016424;28;20172;-45
2023/02/02 14:16:40;;;;;;;3.05;0.93;;;;;;;;;;5009146;28;20199;-44
2023/02/02 14:19:17;;;;;;;2.95;1.20;;;;;;;;;;5014892;28;20469;-45
2023/02/02 14:21:43;;;;;;;4.47;1.10;;;;;;;;;;5015121;28;20627;-45
2023/02/02 14:24:28;;;;;;;2.45;0.90;;;;;;;;;;5007555;28;20272;-45
2023/02/02 14:26:57;;;;;;;6.18;1.20;;;;;;;;;;5015173;28;20189;-45
2023/02/02 14:29:33;;;;;;;6.70;1.27;;;;;;;;;;5015801;28;20173;-45
2023/02/02 14:31:59;;;;;;;1.60;1.15;;;;;;;;;;5015202;28;20172;-45
2023/02/02 14:34:34;;;;;;;3.15;1.20;;;;;;;;;;5015692;28;20191;-45
2023/02/02 14:37:14;;;;;;;4.13;1.05;;;;;;;;;;5011080;28;20192;-45
2023/02/02 14:39:58;;;;;;;3.50;1.20;;;;;;;;;;5015911;28;20208;-45
2023/02/02 14:45:33;;;;;;;3.40;0.93;;;;;;;;;;5000868;28;20196;-45
2023/02/02 14:48:08;;;;;;;2.05;1.00;;;;;;;;;;5004445;28;20196;-44
2023/02/02 14:50:40;;;;;;;1.45;1.00;;;;;;;;;;4998436;28;20200;-45
2023/02/02 14:53:15;;;;;;;5.55;0.95;;;;;;;;;;5003874;28;20173;-44
2023/02/02 14:55:59;;;;;;;3.22;1.10;;;;;;;;;;5006414;28;20238;-45
2023/02/02 14:58:28;;;;;;;2.97;0.88;;;;;;;;;;5008304;28;20476;-45
2023/02/02 15:00:56;;;;;;;3.03;0.90;;;;;;;;;;5013862;28;20177;-44
2023/02/02 15:03:46;;;;;;;1.67;0.90;;;;;;;;;;5014287;28;20350;-45
2023/02/02 15:06:29;;;;;;;5.03;0.93;;;;;;;;;;5008180;28;20207;-45
2023/02/02 15:09:14;;;;;;;3.65;0.90;;;;;;;;;;5007948;28;20191;-45
2023/02/02 15:12:01;;;;;;;1.48;0.95;;;;;;;;;;5011754;28;20208;-46
2023/02/02 15:14:46;;;;;;;2.40;0.90;;;;;;;;;;5000568;28;20188;-45
2023/02/02 15:17:32;;;;;;;3.08;0.98;;;;;;;;;;5004166;28;20195;-45
2023/02/02 15:20:04;;;;;;;1.25;0.90;;;;;;;;;;5005585;28;20485;-45